Time;durP1;ratioP1;P1;durP2;ratioP2;P2;SDS_P1;SDS_P2;PMS_P1;PMS_P2;Temp;Humidity;BMP_temperature;BMP_pressure;BME280_temperature;BME280_humidity;BME280_pressure;Samples;Min_cycle;Max_cycle;Signal;HPM_P1;HPM_P2
2021/10/18 00:02:42;;;;;;;8.93;5.43;;;;;;;5.76;64.62;100614.13;10343929;28;20084;-63
2021/10/18 00:07:44;;;;;;;8.73;5.30;;;;;;;5.66;64.80;100621.31;10343763;28;20495;-63
2021/10/18 00:12:46;;;;;;;10.05;5.50;;;;;;;5.64;64.96;100624.81;10343744;28;20062;-63
2021/10/18 00:17:48;;;;;;;9.93;5.20;;;;;;;5.64;64.93;100636.06;10341293;28;20272;-62
2021/10/18 00:22:50;;;;;;;173.38;8.98;;;;;;;5.55;65.14;100639.75;10374930;28;20261;-63
2021/10/18 00:27:52;;;;;;;84.38;8.10;;;;;;;5.56;65.22;100640.63;10343595;28;20128;-63
2021/10/18 00:32:54;;;;;;;326.42;12.35;;;;;;;5.48;65.02;100634.78;10342690;28;20054;-62
2021/10/18 00:37:55;;;;;;;92.78;7.22;;;;;;;5.41;65.39;100631.50;10343492;28;20048;-63
2021/10/18 00:42:57;;;;;;;53.08;6.53;;;;;;;5.43;65.28;100624.53;10342727;28;20490;-63
2021/10/18 00:47:59;;;;;;;117.00;8.60;;;;;;;5.25;65.15;100640.59;10348152;28;20145;-62
2021/10/18 00:53:01;;;;;;;434.27;14.52;;;;;;;5.05;65.31;100632.50;10349883;28;20050;-62
2021/10/18 00:58:03;;;;;;;32.53;5.57;;;;;;;5.05;65.68;100635.09;10349856;28;20076;-62
2021/10/18 01:03:06;;;;;;;36.58;5.80;;;;;;;5.14;65.42;100632.28;10350165;28;20076;-62
2021/10/18 01:08:11;;;;;;;100.13;7.22;;;;;;;5.16;65.18;100634.81;10381751;28;20080;-63
2021/10/18 01:13:13;;;;;;;154.93;8.70;;;;;;;5.08;65.64;100652.31;10349237;28;20062;-63
2021/10/18 01:18:15;;;;;;;458.42;13.65;;;;;;;5.01;65.80;100635.22;10349087;28;20089;-62
2021/10/18 01:23:17;;;;;;;200.98;8.93;;;;;;;5.07;65.79;100637.66;10349729;28;20410;-63
2021/10/18 01:28:19;;;;;;;410.95;13.88;;;;;;;4.89;65.47;100633.78;10348980;28;20049;-62
2021/10/18 01:33:21;;;;;;;281.63;10.35;;;;;;;4.93;65.94;100621.59;10348670;28;20629;-63
2021/10/18 01:38:23;;;;;;;220.50;12.32;;;;;;;5.10;65.59;100630.66;10348747;28;20060;-62
2021/10/18 01:43:25;;;;;;;27.83;8.50;;;;;;;5.25;65.63;100631.97;10346977;28;20521;-63
2021/10/18 01:48:27;;;;;;;83.95;8.52;;;;;;;5.46;65.19;100621.88;10347999;28;20046;-63
2021/10/18 01:53:29;;;;;;;22.42;7.35;;;;;;;5.44;65.17;100635.78;10349121;28;20133;-63
2021/10/18 01:58:32;;;;;;;88.30;8.18;;;;;;;5.50;65.18;100641.66;10347058;28;20604;-63
2021/10/18 02:03:34;;;;;;;57.03;7.63;;;;;;;5.63;64.86;100634.38;10351577;28;20525;-62
2021/10/18 02:08:37;;;;;;;29.02;7.10;;;;;;;5.70;64.80;100638.47;10355333;28;20050;-63
2021/10/18 02:13:39;;;;;;;68.03;7.15;;;;;;;5.68;64.83;100634.22;10354681;28;20049;-63
2021/10/18 02:18:40;;;;;;;36.97;6.43;;;;;;;5.71;64.88;100642.78;10354021;28;20137;-61
2021/10/18 02:23:42;;;;;;;19.15;6.43;;;;;;;5.81;64.72;100631.25;10354943;28;20388;-62
2021/10/18 02:28:44;;;;;;;50.05;7.13;;;;;;;5.88;64.57;100627.56;10355286;28;20502;-63
2021/10/18 02:33:45;;;;;;;106.60;9.15;;;;;;;5.91;64.56;100632.69;10354988;28;20046;-63
2021/10/18 02:38:47;;;;;;;117.97;9.05;;;;;;;5.96;64.88;100638.56;10354842;28;20056;-63
2021/10/18 02:43:49;;;;;;;106.15;9.02;;;;;;;6.00;64.85;100627.19;10354661;28;20068;-62
2021/10/18 02:48:51;;;;;;;115.28;10.25;;;;;;;6.00;64.99;100627.19;10353663;28;20054;-63
2021/10/18 02:53:52;;;;;;;116.75;10.35;;;;;;;6.02;65.09;100619.38;10352819;28;20049;-63
2021/10/18 02:58:54;;;;;;;167.90;11.00;;;;;;;6.10;64.91;100627.78;10354082;28;20050;-63
2021/10/18 03:03:56;;;;;;;117.53;11.40;;;;;;;6.10;65.03;100641.59;10350787;28;20058;-63
2021/10/18 03:08:59;;;;;;;175.02;10.20;;;;;;;6.12;64.88;100652.78;10348504;28;20244;-63
2021/10/18 03:14:00;;;;;;;188.85;10.90;;;;;;;6.10;64.92;100644.19;10345943;28;20455;-63
2021/10/18 03:19:02;;;;;;;156.13;12.10;;;;;;;6.12;65.31;100657.97;10345369;28;20485;-63
2021/10/18 03:24:04;;;;;;;155.23;10.63;;;;;;;6.15;64.94;100652.72;10328284;28;20550;-63
2021/10/18 03:29:06;;;;;;;112.60;11.18;;;;;;;6.19;64.95;100648.25;10346411;28;20050;-63
2021/10/18 03:34:07;;;;;;;144.70;9.82;;;;;;;6.19;64.83;100646.53;10346319;28;20045;-63
2021/10/18 03:39:09;;;;;;;164.10;11.50;;;;;;;6.07;65.11;100644.31;10345736;28;20538;-63
2021/10/18 03:44:11;;;;;;;125.30;11.05;;;;;;;6.04;65.33;100648.75;10345728;28;20057;-63
2021/10/18 03:49:14;;;;;;;247.50;13.35;;;;;;;6.04;65.50;100664.31;10345219;28;20068;-62
2021/10/18 03:54:15;;;;;;;182.13;12.10;;;;;;;6.00;65.50;100663.53;10345412;28;20060;-63
2021/10/18 03:59:17;;;;;;;126.03;10.75;;;;;;;6.03;65.55;100671.25;10345364;28;20049;-62
2021/10/18 04:04:19;;;;;;;153.05;11.82;;;;;;;6.01;65.47;100673.06;10344659;28;20060;-63
2021/10/18 04:09:20;;;;;;;323.27;14.05;;;;;;;5.96;65.45;100681.88;10345251;28;20050;-63
2021/10/18 04:14:22;;;;;;;186.43;11.63;;;;;;;5.97;65.51;100686.16;10344474;28;20511;-63
2021/10/18 04:19:24;;;;;;;189.43;13.10;;;;;;;6.01;65.58;100698.16;10344513;28;20053;-63
2021/10/18 04:24:25;;;;;;;220.45;11.95;;;;;;;5.94;65.74;100688.84;10352388;28;20543;-63
2021/10/18 04:29:27;;;;;;;351.42;14.88;;;;;;;5.85;65.64;100702.09;10351579;28;20054;-63
2021/10/18 04:34:29;;;;;;;276.92;15.10;;;;;;;5.60;65.88;100704.50;10351971;28;20282;-62
2021/10/18 04:39:31;;;;;;;304.70;15.68;;;;;;;5.35;65.95;100711.25;10347666;28;20054;-63
2021/10/18 04:44:37;;;;;;;244.40;16.30;;;;;;;5.10;66.63;100712.78;10347066;28;20288;-63
2021/10/18 04:49:38;;;;;;;201.00;10.77;;;;;;;5.27;66.51;100715.75;10350038;28;20517;-63
2021/10/18 04:54:40;;;;;;;300.95;14.20;;;;;;;5.25;66.03;100715.81;10350631;28;20053;-63
2021/10/18 04:59:42;;;;;;;120.25;10.65;;;;;;;5.18;65.97;100727.25;10350952;28;20045;-63
2021/10/18 05:04:44;;;;;;;163.50;10.50;;;;;;;5.27;66.00;100727.00;10350465;28;20060;-63
2021/10/18 05:09:45;;;;;;;295.05;13.13;;;;;;;5.40;65.74;100730.13;10350146;28;20447;-63
2021/10/18 05:14:47;;;;;;;449.63;19.58;;;;;;;5.21;65.34;100732.34;10348681;28;20058;-63
2021/10/18 05:19:50;;;;;;;147.13;9.30;;;;;;;4.99;65.96;100726.00;10345673;28;20050;-63
2021/10/18 05:24:51;;;;;;;333.60;15.27;;;;;;;4.89;66.45;100724.50;10346032;28;20150;-63
2021/10/18 05:29:53;;;;;;;225.85;12.52;;;;;;;4.98;66.64;100726.91;10346550;28;20857;-64
2021/10/18 05:34:55;;;;;;;284.27;15.52;;;;;;;4.89;66.56;100726.25;10346372;28;20135;-63
2021/10/18 05:39:57;;;;;;;304.58;15.15;;;;;;;4.84;66.56;100720.34;10346719;28;20103;-62
2021/10/18 05:44:58;;;;;;;152.65;11.50;;;;;;;4.82;67.02;100719.50;10347911;28;20080;-63
2021/10/18 05:50:01;;;;;;;173.60;12.77;;;;;;;4.84;66.94;100721.16;10346917;28;20045;-63
2021/10/18 05:55:02;;;;;;;125.90;10.63;;;;;;;4.79;66.91;100740.31;10347449;28;20105;-63
2021/10/18 06:00:05;;;;;;;75.25;10.50;;;;;;;5.02;66.99;100738.88;10347303;28;20341;-63
2021/10/18 06:05:07;;;;;;;108.07;10.68;;;;;;;5.21;66.71;100741.84;10346303;28;20521;-63
2021/10/18 06:10:09;;;;;;;55.65;9.98;;;;;;;5.26;66.36;100742.59;10345939;28;20141;-63
2021/10/18 06:15:12;;;;;;;746.53;28.90;;;;;;;5.25;65.98;100746.06;10307389;28;1160984;-63
2021/10/18 06:20:14;;;;;;;227.40;13.70;;;;;;;5.17;66.40;100758.38;10348716;28;20060;-63
2021/10/18 06:25:15;;;;;;;318.52;17.95;;;;;;;5.19;66.22;100764.38;10348452;28;20104;-63
2021/10/18 06:30:17;;;;;;;167.52;12.90;;;;;;;5.39;66.45;100775.13;10348348;28;20050;-63
2021/10/18 06:35:20;;;;;;;183.82;14.13;;;;;;;5.33;65.82;100772.69;10348419;28;20170;-63
2021/10/18 06:40:22;;;;;;;188.73;13.13;;;;;;;5.40;66.01;100777.69;10347902;28;20128;-63
2021/10/18 06:45:24;;;;;;;273.23;17.70;;;;;;;5.55;65.66;100782.47;10347376;28;20057;-63
2021/10/18 06:50:26;;;;;;;117.00;13.05;;;;;;;5.56;65.93;100796.28;10346966;28;20053;-63
2021/10/18 06:55:28;;;;;;;106.95;10.60;;;;;;;5.71;65.62;100801.09;10347585;28;20064;-63
2021/10/18 07:00:30;;;;;;;71.90;10.68;;;;;;;5.88;65.50;100804.09;10346166;28;20053;-63
2021/10/18 07:05:32;;;;;;;143.15;14.05;;;;;;;5.77;65.33;100806.13;10346450;28;20130;-63
2021/10/18 07:10:34;;;;;;;127.72;10.52;;;;;;;5.71;65.30;100818.41;10346788;28;20056;-63
2021/10/18 07:15:37;;;;;;;75.45;11.48;;;;;;;5.66;65.63;100828.91;10345702;28;20088;-63
2021/10/18 07:20:38;;;;;;;129.18;15.07;;;;;;;5.85;65.64;100822.34;10346393;28;20042;-63
2021/10/18 07:25:44;;;;;;;117.13;13.45;;;;;;;5.89;65.40;100823.97;10345926;28;20157;-63
2021/10/18 07:30:46;;;;;;;111.75;14.73;;;;;;;6.01;65.30;100821.06;10327705;28;20877;-63
2021/10/18 07:35:48;;;;;;;82.45;13.57;;;;;;;6.14;65.29;100812.00;10345955;28;20139;-63
2021/10/18 07:40:51;;;;;;;78.15;13.13;;;;;;;6.30;65.23;100812.50;10344905;28;20054;-63
2021/10/18 07:45:53;;;;;;;172.27;16.75;;;;;;;6.32;64.77;100818.50;10342079;28;20049;-62
2021/10/18 07:50:55;;;;;;;105.70;13.23;;;;;;;6.38;65.21;100823.50;10343944;28;20060;-62
2021/10/18 07:55:57;;;;;;;120.45;14.23;;;;;;;6.35;64.58;100821.84;10342518;28;20060;-63
2021/10/18 08:00:58;;;;;;;202.90;17.83;;;;;;;6.49;64.54;100828.41;10343326;28;20060;-63
2021/10/18 08:06:00;;;;;;;316.67;24.27;;;;;;;6.28;64.52;100833.31;10343984;28;20054;-63
2021/10/18 08:11:02;;;;;;;67.07;14.25;;;;;;;6.25;64.93;100830.78;10343435;28;20920;-63
2021/10/18 08:16:04;;;;;;;87.18;18.95;;;;;;;6.28;64.67;100816.88;10343045;28;20060;-62
2021/10/18 08:21:10;;;;;;;107.00;20.83;;;;;;;6.28;64.70;100822.94;10343628;28;20069;-63
2021/10/18 08:26:12;;;;;;;63.45;15.88;;;;;;;6.34;64.74;100827.09;10344161;28;20050;-63
2021/10/18 08:31:15;;;;;;;46.33;16.42;;;;;;;6.43;64.85;100832.00;10343434;28;20050;-64
2021/10/18 08:36:17;;;;;;;60.42;19.02;;;;;;;6.38;64.72;100823.50;10342976;28;20104;-64
2021/10/18 08:46:26;;;;;;;43.38;17.48;;;;;;;6.46;64.86;100837.13;10342811;28;20125;-62
2021/10/18 08:51:28;;;;;;;46.88;17.48;;;;;;;6.73;64.33;100830.28;10343195;28;20100;-63
2021/10/18 08:56:30;;;;;;;43.10;17.63;;;;;;;6.65;64.58;100840.91;10342865;28;20053;-63
2021/10/18 09:01:42;;;;;;;43.03;17.63;;;;;;;6.68;64.82;100834.75;10339648;28;20057;-62
2021/10/18 09:06:47;;;;;;;38.15;15.93;;;;;;;6.87;64.57;100838.53;10344192;28;20042;-64
2021/10/18 09:11:49;;;;;;;44.85;17.25;;;;;;;6.77;64.14;100847.50;10349494;28;20058;-64
2021/10/18 09:16:51;;;;;;;34.65;17.52;;;;;;;6.86;64.46;100839.41;10343675;28;20137;-62
2021/10/18 09:21:59;;;;;;;31.92;15.63;;;;;;;7.26;64.04;100833.84;10342724;28;20562;-64
2021/10/18 09:27:05;;;;;;;39.80;17.60;;;;;;;7.57;62.90;100824.13;10347965;28;20046;-64
2021/10/18 09:32:07;;;;;;;44.38;19.00;;;;;;;7.62;62.66;100833.50;10342691;28;20054;-64
2021/10/18 09:37:14;;;;;;;32.38;17.20;;;;;;;7.64;62.74;100831.69;10346646;28;20433;-69
2021/10/18 09:42:18;;;;;;;28.83;16.15;;;;;;;7.79;62.46;100838.13;10348139;28;20050;-69
2021/10/18 10:52:55;;;;;;;31.23;17.40;;;;;;;9.84;59.74;100798.88;10347149;28;20053;-70
2021/10/18 10:58:00;;;;;;;28.52;17.02;;;;;;;9.96;59.48;100794.88;10347272;28;20077;-69
2021/10/18 11:03:20;;;;;;;27.60;17.52;;;;;;;9.82;58.93;100792.03;10347280;28;20057;-69
2021/10/18 11:08:34;;;;;;;29.08;17.48;;;;;;;10.09;59.11;100791.69;10345402;28;20046;-70
2021/10/18 11:13:54;;;;;;;26.02;16.77;;;;;;;10.27;58.70;100780.41;10347109;28;20058;-69
2021/10/18 11:18:59;;;;;;;26.57;17.00;;;;;;;10.45;59.07;100760.41;10344476;28;20038;-70
2021/10/18 11:24:08;;;;;;;27.15;18.10;;;;;;;10.65;58.52;100773.41;10346580;28;20429;-70
2021/10/18 11:29:12;;;;;;;29.67;19.38;;;;;;;10.73;59.19;100749.50;10345895;28;20502;-70
2021/10/18 11:34:19;;;;;;;30.60;20.85;;;;;;;10.98;59.46;100750.88;10346162;28;20127;-70
2021/10/18 11:39:27;;;;;;;42.25;27.15;;;;;;;11.06;59.79;100740.06;10346744;28;20057;-70
2021/10/18 11:44:47;;;;;;;39.17;25.52;;;;;;;11.29;59.21;100742.41;10345609;28;20050;-71
2021/10/18 11:50:16;;;;;;;36.60;26.02;;;;;;;11.68;58.34;100742.16;10345387;28;20145;-70
2021/10/18 11:55:23;;;;;;;44.08;29.10;;;;;;;11.87;58.44;100737.66;10346139;28;20115;-71
2021/10/18 12:00:31;;;;;;;43.03;30.70;;;;;;;11.58;58.44;100730.47;10345201;28;20058;-69
2021/10/18 12:05:54;;;;;;;43.00;30.55;;;;;;;11.44;57.85;100725.09;10344678;28;20049;-68
2021/10/18 12:10:57;;;;;;;44.67;29.95;;;;;;;11.52;58.14;100713.25;10343878;28;20042;-69
2021/10/18 12:16:07;;;;;;;42.78;29.83;;;;;;;11.55;57.79;100709.66;10343998;28;20552;-69
2021/10/18 12:21:11;;;;;;;40.53;29.02;;;;;;;11.81;57.91;100714.38;10344784;28;20057;-69
2021/10/18 12:26:19;;;;;;;39.42;27.77;;;;;;;12.13;56.83;100705.66;10345124;28;20053;-70
2021/10/18 12:31:31;;;;;;;33.25;24.83;;;;;;;11.88;56.36;100692.19;10344440;28;20054;-70
2021/10/18 12:37:03;;;;;;;34.97;26.40;;;;;;;12.07;55.82;100680.63;10345066;28;20077;-70
2021/10/18 12:42:06;;;;;;;35.75;26.70;;;;;;;12.17;57.16;100686.22;10348033;28;20064;-69
2021/10/18 12:47:15;;;;;;;38.22;27.65;;;;;;;12.28;56.19;100686.50;10351744;28;20137;-70
2021/10/18 12:52:29;;;;;;;40.05;26.63;;;;;;;12.31;55.86;100688.97;10353004;28;20060;-70
2021/10/18 12:57:31;;;;;;;37.05;26.13;;;;;;;12.24;56.50;100700.69;10352273;28;20558;-69
2021/10/18 13:02:38;;;;;;;34.78;25.25;;;;;;;12.29;56.16;100696.09;10350980;28;20136;-70
2021/10/18 13:07:49;;;;;;;40.65;27.42;;;;;;;12.08;56.98;100681.47;10351287;28;20054;-69
2021/10/18 13:12:51;;;;;;;40.85;27.98;;;;;;;12.15;57.21;100677.56;10347909;28;20058;-68
2021/10/18 13:17:52;;;;;;;45.45;29.40;;;;;;;12.31;56.69;100672.38;10346240;28;20053;-69
2021/10/18 13:22:57;;;;;;;35.40;26.33;;;;;;;12.30;57.18;100668.06;10348277;28;20060;-68
2021/10/18 13:28:02;;;;;;;39.58;27.70;;;;;;;12.24;56.70;100648.22;10346483;28;20042;-71
2021/10/18 13:33:05;;;;;;;37.70;27.05;;;;;;;12.39;56.74;100649.19;10344249;28;20129;-69
2021/10/18 13:38:09;;;;;;;39.33;26.23;;;;;;;12.38;56.17;100643.09;10347997;28;20050;-68
2021/10/18 13:43:12;;;;;;;35.70;26.08;;;;;;;12.33;56.49;100628.56;10346006;28;20068;-69
2021/10/18 13:48:14;;;;;;;34.30;25.85;;;;;;;12.24;56.57;100634.25;10346237;28;20062;-69
2021/10/18 13:53:16;;;;;;;36.70;25.38;;;;;;;12.11;56.99;100640.19;10347008;28;20113;-69
2021/10/18 13:58:19;;;;;;;33.40;25.60;;;;;;;11.97;57.01;100620.88;10346349;28;20049;-69
2021/10/18 14:03:21;;;;;;;36.13;26.40;;;;;;;11.93;57.10;100632.47;10346703;28;20461;-69
2021/10/18 14:08:23;;;;;;;37.53;27.52;;;;;;;11.51;57.56;100632.16;10346927;28;20089;-69
2021/10/18 14:13:26;;;;;;;39.92;28.55;;;;;;;11.51;57.70;100645.25;10345872;28;20061;-68
2021/10/18 14:18:28;;;;;;;37.25;27.90;;;;;;;11.28;58.27;100635.97;10346526;28;20257;-68
2021/10/18 14:23:32;;;;;;;40.72;29.25;;;;;;;11.05;58.89;100636.28;10346659;28;20533;-69
2021/10/18 14:28:34;;;;;;;43.03;30.88;;;;;;;10.93;59.21;100629.84;10344909;28;20071;-69
2021/10/18 14:33:36;;;;;;;41.65;30.98;;;;;;;10.99;59.29;100618.25;10346516;28;20395;-68
2021/10/18 14:38:39;;;;;;;42.00;29.10;;;;;;;10.92;59.46;100615.09;10344245;28;20540;-69
2021/10/18 14:43:41;;;;;;;43.55;31.42;;;;;;;10.90;59.53;100616.09;10344764;28;20054;-69
2021/10/18 14:48:42;;;;;;;43.15;30.95;;;;;;;10.90;59.50;100609.09;10341334;28;20041;-69
2021/10/18 14:53:44;;;;;;;42.15;29.90;;;;;;;10.79;59.76;100605.28;10345100;28;20826;-69
2021/10/18 14:58:46;;;;;;;48.60;30.95;;;;;;;10.72;59.87;100610.00;10342098;28;20501;-70
2021/10/18 15:03:48;;;;;;;43.65;30.45;;;;;;;10.74;60.02;100625.63;10344547;28;20064;-69
2021/10/18 15:08:52;;;;;;;43.15;30.58;;;;;;;10.78;59.77;100629.78;10344110;28;20465;-69
2021/10/18 15:13:53;;;;;;;43.95;31.10;;;;;;;10.74;59.77;100629.09;10343736;28;20141;-69
2021/10/18 15:18:55;;;;;;;41.03;29.90;;;;;;;10.78;59.74;100628.03;10342882;28;20259;-70
2021/10/18 15:23:57;;;;;;;46.47;30.75;;;;;;;10.71;60.11;100628.38;10344062;28;20051;-69
2021/10/18 15:28:59;;;;;;;45.83;31.55;;;;;;;10.68;60.11;100624.16;10343438;28;20410;-69
2021/10/18 15:34:01;;;;;;;45.58;31.90;;;;;;;10.68;60.03;100644.25;10335416;28;20045;-71
2021/10/18 15:39:05;;;;;;;46.38;30.88;;;;;;;10.55;60.37;100638.75;10340430;28;20686;-70
2021/10/18 15:44:06;;;;;;;46.55;29.95;;;;;;;10.54;60.37;100659.75;10341151;28;20061;-70
2021/10/18 15:49:08;;;;;;;45.03;30.80;;;;;;;10.33;60.84;100651.16;10340938;28;20056;-70
2021/10/18 15:54:10;;;;;;;49.88;32.60;;;;;;;10.09;61.20;100634.03;10341277;28;20056;-70
2021/10/18 15:59:12;;;;;;;43.72;30.88;;;;;;;10.07;61.49;100646.31;10342827;28;20049;-71
2021/10/18 16:04:14;;;;;;;46.72;31.33;;;;;;;10.07;61.34;100647.16;10341704;28;20093;-70
2021/10/18 16:09:16;;;;;;;46.38;31.38;;;;;;;9.82;61.97;100643.97;10341292;28;20449;-69
2021/10/18 16:14:17;;;;;;;47.33;30.45;;;;;;;9.79;62.13;100662.38;10342348;28;20068;-71
2021/10/18 16:19:20;;;;;;;46.63;31.35;;;;;;;9.82;62.22;100640.50;10349678;28;20041;-70
2021/10/18 16:24:22;;;;;;;46.53;31.35;;;;;;;9.71;62.35;100629.72;10349242;28;20056;-70
2021/10/18 16:29:23;;;;;;;46.83;30.88;;;;;;;9.64;62.44;100648.22;10348315;28;20056;-70
2021/10/18 16:34:25;;;;;;;49.85;31.40;;;;;;;9.61;62.71;100645.75;10348569;28;20054;-70
2021/10/18 16:39:27;;;;;;;47.22;30.83;;;;;;;9.38;63.21;100655.50;10348939;28;20042;-70
2021/10/18 16:44:34;;;;;;;46.28;31.27;;;;;;;9.19;63.70;100660.66;10348132;28;20050;-70
2021/10/18 16:49:37;;;;;;;44.55;29.85;;;;;;;9.16;63.81;100662.53;10349461;28;20050;-70
2021/10/18 16:54:39;;;;;;;48.80;31.00;;;;;;;9.21;63.94;100661.44;10346623;28;20494;-70
2021/10/18 16:59:41;;;;;;;48.30;32.58;;;;;;;9.18;63.77;100674.63;10348181;28;20553;-63
2021/10/18 17:04:44;;;;;;;45.47;30.85;;;;;;;9.12;64.04;100650.53;10341726;28;20064;-63
2021/10/18 17:09:45;;;;;;;46.28;29.52;;;;;;;9.05;64.19;100644.75;10346678;28;20663;-62
2021/10/18 17:14:50;;;;;;;46.42;30.02;;;;;;;9.01;64.23;100656.22;10348071;28;20050;-62
2021/10/18 17:19:52;;;;;;;49.05;31.90;;;;;;;8.94;64.34;100653.91;10346876;28;20049;-62
2021/10/18 17:24:54;;;;;;;46.92;31.35;;;;;;;8.90;64.38;100653.19;10347700;28;20057;-62
2021/10/18 17:29:57;;;;;;;55.03;34.88;;;;;;;8.90;64.51;100668.84;10346348;28;20060;-62
2021/10/18 17:35:00;;;;;;;54.67;34.65;;;;;;;8.69;65.02;100665.34;10345413;28;20578;-62
2021/10/18 17:40:02;;;;;;;55.05;34.53;;;;;;;8.65;64.98;100669.00;10345401;28;20053;-62
2021/10/18 17:45:05;;;;;;;50.35;32.45;;;;;;;8.70;64.94;100682.72;10344274;28;20512;-62
2021/10/18 17:50:12;;;;;;;52.78;33.97;;;;;;;8.57;65.12;100676.28;10345113;28;20056;-62
2021/10/18 17:55:14;;;;;;;59.53;35.10;;;;;;;8.62;65.17;100684.78;10345352;28;20115;-62
2021/10/18 18:00:16;;;;;;;51.65;32.33;;;;;;;8.55;65.27;100698.97;10348429;28;20105;-62
2021/10/18 18:05:19;;;;;;;50.35;31.98;;;;;;;8.60;65.21;100689.22;10345301;28;20049;-62
2021/10/18 18:10:21;;;;;;;51.45;33.10;;;;;;;8.58;65.25;100705.81;10346892;28;20120;-62
2021/10/18 18:15:23;;;;;;;64.32;38.55;;;;;;;8.50;65.34;100692.22;10345088;28;20555;-62
2021/10/18 18:20:25;;;;;;;63.83;38.55;;;;;;;8.31;65.51;100696.44;10346449;28;20049;-62
2021/10/18 18:25:27;;;;;;;60.50;38.33;;;;;;;8.31;65.71;100699.91;10345466;28;20137;-62
2021/10/18 18:30:29;;;;;;;55.97;35.42;;;;;;;8.15;66.06;100708.34;10345364;28;20050;-62
2021/10/18 18:35:30;;;;;;;59.70;34.83;;;;;;;8.23;65.85;100706.31;10346406;28;20060;-62
2021/10/18 18:40:32;;;;;;;57.33;36.55;;;;;;;8.26;65.76;100708.81;10345264;28;20164;-62
2021/10/18 18:45:34;;;;;;;50.30;32.30;;;;;;;8.20;65.94;100699.44;10345815;28;20060;-61
2021/10/18 18:50:36;;;;;;;63.55;39.33;;;;;;;8.20;65.78;100685.59;10345697;28;20046;-62
2021/10/18 18:55:38;;;;;;;50.45;32.47;;;;;;;8.18;65.96;100682.19;10343375;28;20063;-62
2021/10/18 19:00:39;;;;;;;53.47;33.95;;;;;;;8.12;65.88;100688.47;10345437;28;20054;-62
2021/10/18 19:05:41;;;;;;;51.47;33.40;;;;;;;8.03;65.90;100687.06;10345382;28;20088;-62
2021/10/18 19:10:43;;;;;;;58.25;35.05;;;;;;;8.01;65.80;100685.41;10346365;28;20153;-62
2021/10/18 19:15:45;;;;;;;58.15;34.10;;;;;;;7.92;65.89;100676.16;10346252;28;20725;-62
2021/10/18 19:20:47;;;;;;;75.78;40.03;;;;;;;7.79;65.74;100666.28;10345974;28;21101;-62
2021/10/18 19:25:49;;;;;;;56.78;35.08;;;;;;;7.51;66.30;100676.00;10345359;28;20050;-62
2021/10/18 19:30:51;;;;;;;74.57;38.42;;;;;;;7.47;66.07;100670.03;10336063;28;20052;-62
2021/10/18 19:35:53;;;;;;;57.08;34.75;;;;;;;7.30;66.29;100674.13;10343947;28;20050;-62
2021/10/18 19:40:54;;;;;;;65.13;37.85;;;;;;;7.27;66.66;100675.06;10344404;28;20050;-62
2021/10/18 19:45:56;;;;;;;61.53;37.17;;;;;;;7.31;66.53;100674.06;10341639;28;20057;-62
2021/10/18 19:50:58;;;;;;;79.18;40.42;;;;;;;7.10;66.69;100682.63;10345227;28;20077;-62
2021/10/18 19:56:00;;;;;;;66.78;36.88;;;;;;;7.03;67.31;100681.09;10338940;28;20053;-62
2021/10/18 20:01:02;;;;;;;62.50;36.95;;;;;;;7.13;66.71;100679.91;10344278;28;20046;-62
2021/10/18 20:06:04;;;;;;;61.88;36.53;;;;;;;7.19;66.71;100680.53;10342238;28;20053;-61
2021/10/18 20:11:06;;;;;;;64.63;38.60;;;;;;;7.17;66.76;100676.28;10344373;28;20042;-62
2021/10/18 20:16:08;;;;;;;63.40;37.33;;;;;;;7.12;66.22;100676.44;10343446;28;20430;-62
2021/10/18 20:21:10;;;;;;;65.60;37.28;;;;;;;6.96;66.57;100683.06;10343932;28;20204;-61
2021/10/18 20:26:12;;;;;;;66.80;36.83;;;;;;;6.97;66.58;100678.72;10343333;28;20068;-62
2021/10/18 20:31:14;;;;;;;52.63;33.47;;;;;;;7.00;66.73;100696.81;10341737;28;20050;-62
2021/10/18 20:36:16;;;;;;;54.55;32.05;;;;;;;7.04;66.61;100690.63;10343036;28;20046;-61
2021/10/18 20:41:18;;;;;;;60.33;34.92;;;;;;;7.02;66.45;100688.06;10342957;28;20183;-61
2021/10/18 20:46:20;;;;;;;55.50;32.45;;;;;;;7.00;66.42;100682.06;10342812;28;20491;-62
2021/10/18 20:51:22;;;;;;;55.33;33.47;;;;;;;6.94;66.64;100676.19;10343079;28;20132;-62
2021/10/18 20:56:23;;;;;;;58.28;36.17;;;;;;;6.97;66.47;100657.91;10342696;28;20050;-62
2021/10/18 21:01:25;;;;;;;60.42;35.65;;;;;;;6.97;66.44;100656.16;10342716;28;20046;-62
2021/10/18 21:06:27;;;;;;;55.28;33.10;;;;;;;6.95;66.40;100654.50;10350535;28;20497;-62
2021/10/18 21:11:31;;;;;;;48.08;30.60;;;;;;;6.91;66.60;100674.56;10350229;28;20446;-62
2021/10/18 21:16:32;;;;;;;70.05;35.78;;;;;;;6.94;66.23;100679.66;10350074;28;20536;-62
2021/10/18 21:21:37;;;;;;;56.72;33.17;;;;;;;6.85;66.15;100682.56;10349976;28;20871;-62
2021/10/18 21:26:39;;;;;;;123.35;42.28;;;;;;;6.69;66.14;100665.78;10349135;28;20498;-62
2021/10/18 21:31:40;;;;;;;93.70;41.40;;;;;;;6.64;66.44;100653.81;10349148;28;20056;-62
2021/10/18 21:36:42;;;;;;;64.32;34.63;;;;;;;6.75;66.68;100643.94;10348660;28;20058;-62
2021/10/18 21:41:44;;;;;;;62.50;34.58;;;;;;;6.61;66.94;100649.59;10348695;28;20053;-62
2021/10/18 21:46:45;;;;;;;63.28;35.88;;;;;;;6.63;66.91;100646.94;10348783;28;20060;-62
2021/10/18 21:51:47;;;;;;;55.00;30.38;;;;;;;6.72;66.86;100657.00;10348836;28;20062;-62
2021/10/18 21:56:49;;;;;;;61.00;32.78;;;;;;;6.86;66.53;100657.41;10348061;28;20046;-61
2021/10/18 22:01:50;;;;;;;63.00;33.45;;;;;;;6.93;66.30;100638.13;10348108;28;20050;-61
2021/10/18 22:06:52;;;;;;;46.67;28.40;;;;;;;6.87;66.00;100620.13;10347895;28;20740;-61
2021/10/18 22:11:55;;;;;;;50.38;30.55;;;;;;;6.78;66.17;100623.00;10347182;28;20160;-61
2021/10/18 22:17:00;;;;;;;52.00;28.60;;;;;;;6.81;66.53;100630.72;10347665;28;20049;-61
2021/10/18 22:22:03;;;;;;;60.25;32.55;;;;;;;6.95;66.29;100644.09;10348204;28;20057;-61
2021/10/18 22:27:05;;;;;;;65.45;32.47;;;;;;;6.96;66.38;100645.78;10347731;28;20054;-61
2021/10/18 22:32:06;;;;;;;121.93;33.85;;;;;;;6.97;66.46;100629.31;10346011;28;20046;-61
2021/10/18 22:37:08;;;;;;;74.80;35.08;;;;;;;6.93;66.54;100632.91;10344047;28;20487;-62
2021/10/18 22:42:10;;;;;;;71.50;37.03;;;;;;;7.03;66.69;100647.31;10346153;28;20053;-61
2021/10/18 22:47:11;;;;;;;63.90;33.40;;;;;;;7.20;66.45;100629.38;10345940;28;20395;-61
2021/10/18 22:52:13;;;;;;;75.50;36.55;;;;;;;7.26;66.24;100633.50;10344785;28;20140;-61
2021/10/18 22:57:15;;;;;;;72.10;35.75;;;;;;;7.26;66.01;100623.97;10345983;28;20053;-61
2021/10/18 23:02:17;;;;;;;112.88;42.03;;;;;;;7.10;65.98;100630.59;10346133;28;20069;-61
2021/10/18 23:07:19;;;;;;;67.40;35.00;;;;;;;7.02;66.56;100654.25;10345412;28;20057;-61
2021/10/18 23:12:20;;;;;;;82.25;37.65;;;;;;;7.12;66.41;100660.00;10344677;28;20049;-61
2021/10/18 23:17:22;;;;;;;82.65;38.22;;;;;;;7.16;66.33;100654.63;10345806;28;20068;-61
2021/10/18 23:22:24;;;;;;;95.70;37.83;;;;;;;7.17;66.27;100637.28;10345721;28;20045;-61
2021/10/18 23:27:25;;;;;;;88.70;37.72;;;;;;;7.10;66.04;100630.59;10344439;28;20093;-61
2021/10/18 23:32:27;;;;;;;93.25;39.10;;;;;;;6.98;66.20;100641.38;10343148;28;20049;-61
2021/10/18 23:37:29;;;;;;;94.20;39.55;;;;;;;6.70;66.78;100632.81;10344862;28;20514;-61
2021/10/18 23:42:31;;;;;;;72.25;36.10;;;;;;;6.82;66.89;100624.59;10343350;28;20050;-61
2021/10/18 23:47:34;;;;;;;77.22;35.97;;;;;;;6.92;66.94;100628.59;10344342;28;20064;-61
2021/10/18 23:52:36;;;;;;;61.50;34.05;;;;;;;7.07;66.68;100639.34;10344580;28;20060;-61
2021/10/18 23:57:38;;;;;;;56.38;29.85;;;;;;;7.15;66.60;100636.47;10344413;28;20429;-61
